createdAt,value
2023-03-28T00:00:41.577Z,100939.12
2023-03-28T00:01:52.056Z,100938.34
2023-03-28T00:02:54.951Z,100937.33
2023-03-28T00:03:57.884Z,100937.48
2023-03-28T00:05:00.825Z,100931.92
2023-03-28T00:06:09.659Z,100930.79
2023-03-28T00:07:12.938Z,100930.92
2023-03-28T00:08:17.848Z,100928.59
2023-03-28T00:09:20.963Z,100927.67
2023-03-28T00:10:24.080Z,100927.16
2023-03-28T00:11:27.112Z,100926.68
2023-03-28T00:12:30.025Z,100925.65
2023-03-28T00:13:33.740Z,100920.79
2023-03-28T00:14:38.352Z,100919.68
2023-03-28T00:15:42.728Z,100915.38
2023-03-28T00:16:45.844Z,100916.32
2023-03-28T00:17:49.341Z,100916.92
2023-03-28T00:18:52.744Z,100916.98
2023-03-28T00:19:55.593Z,100915.90
2023-03-28T00:20:58.955Z,100917.63
2023-03-28T00:22:02.012Z,100915.95
2023-03-28T00:23:04.976Z,100912.31
2023-03-28T00:24:14.014Z,100913.70
2023-03-28T00:25:18.293Z,100912.23
2023-03-28T00:26:24.675Z,100909.05
2023-03-28T00:27:27.760Z,100906.41
2023-03-28T00:28:30.589Z,100906.23
2023-03-28T00:29:34.363Z,100906.77
2023-03-28T00:30:37.614Z,100906.27
2023-03-28T00:31:40.715Z,100905.70
2023-03-28T00:32:43.733Z,100905.13
2023-03-28T00:33:47.844Z,100903.45
2023-03-28T00:34:51.155Z,100902.88
2023-03-28T00:35:56.501Z,100900.30
2023-03-28T00:37:02.599Z,100900.02
2023-03-28T00:38:05.604Z,100896.98
2023-03-28T00:39:12.085Z,100896.73
2023-03-28T00:40:14.955Z,100895.60
2023-03-28T00:41:18.559Z,100895.99
2023-03-28T00:42:23.060Z,100897.52
2023-03-28T00:43:45.924Z,100894.80
2023-03-28T00:44:52.751Z,100894.28
2023-03-28T00:46:06.590Z,100892.94
2023-03-28T00:47:33.536Z,100896.55
2023-03-28T00:48:38.154Z,100896.36
2023-03-28T00:49:41.602Z,100890.27
2023-03-28T00:50:48.788Z,100889.61
2023-03-28T00:51:59.321Z,100889.96
2023-03-28T00:53:15.457Z,100890.48
2023-03-28T00:54:20.454Z,100890.34
2023-03-28T00:55:36.735Z,100891.73
2023-03-28T00:56:44.450Z,100890.02
2023-03-28T00:57:49.142Z,100890.65
2023-03-28T00:58:52.578Z,100891.88
2023-03-28T00:59:55.963Z,100892.74
2023-03-28T01:00:59.345Z,100895.30
2023-03-28T01:02:02.610Z,100897.48
2023-03-28T01:03:06.884Z,100898.70
2023-03-28T01:04:10.411Z,100899.71
2023-03-28T01:05:13.909Z,100900.52
2023-03-28T01:06:17.073Z,100903.58
2023-03-28T01:07:20.714Z,100902.30
2023-03-28T01:08:30.361Z,100903.60
2023-03-28T01:09:33.780Z,100904.52
2023-03-28T01:10:36.773Z,100907.63
2023-03-28T01:11:43.895Z,100905.46
2023-03-28T01:12:48.797Z,100902.10
2023-03-28T01:13:55.770Z,100906.65
2023-03-28T01:15:04.584Z,100901.49
2023-03-28T01:16:20.193Z,100902.84
2023-03-28T01:17:25.661Z,100902.85
2023-03-28T01:18:30.346Z,100905.05
2023-03-28T01:20:13.439Z,100904.68
2023-03-28T01:21:48.974Z,100905.38
2023-03-28T01:23:34.183Z,100903.98
2023-03-28T01:25:03.753Z,100905.52
2023-03-28T01:26:39.514Z,100901.55
2023-03-28T01:28:02.454Z,100908.37
2023-03-28T01:29:39.630Z,100903.88
2023-03-28T01:31:42.270Z,100907.84
2023-03-28T01:33:14.094Z,100910.18
2023-03-28T01:34:35.554Z,100912.48
2023-03-28T01:35:57.126Z,100913.52
2023-03-28T01:37:24.031Z,100913.54
2023-03-28T01:38:37.133Z,100913.73
2023-03-28T01:39:57.061Z,100912.46
2023-03-28T01:41:17.877Z,100914.29
2023-03-28T01:42:29.408Z,100914.98
2023-03-28T01:43:36.882Z,100912.30
2023-03-28T01:44:52.206Z,100912.82
2023-03-28T01:46:01.225Z,100915.44
2023-03-28T01:47:25.333Z,100912.69
2023-03-28T01:48:54.488Z,100917.45
2023-03-28T01:50:18.386Z,100915.32
2023-03-28T01:51:57.563Z,100917.79
2023-03-28T01:53:12.269Z,100917.55
2023-03-28T01:54:29.106Z,100920.87
2023-03-28T01:55:41.475Z,100916.59
2023-03-28T01:56:54.746Z,100920.31
2023-03-28T01:58:06.704Z,100921.03
2023-03-28T01:59:47.932Z,100922.52
2023-03-28T02:01:22.993Z,100924.41
2023-03-28T02:02:39.252Z,100927.84
2023-03-28T02:04:20.790Z,100930.55
2023-03-28T02:05:35.063Z,100933.47
2023-03-28T02:06:41.861Z,100932.91
2023-03-28T02:07:52.289Z,100929.94
2023-03-28T02:09:02.137Z,100933.09
2023-03-28T02:10:37.140Z,100929.23
2023-03-28T02:12:08.536Z,100933.65
2023-03-28T02:13:41.253Z,100932.92
2023-03-28T02:15:13.929Z,100933.92
2023-03-28T02:16:38.814Z,100934.52
2023-03-28T02:18:20.585Z,100937.52
2023-03-28T02:19:33.874Z,100939.17
2023-03-28T02:21:01.588Z,100940.13
2023-03-28T02:22:24.536Z,100943.66
2023-03-28T02:23:51.825Z,100941.39
2023-03-28T02:25:19.213Z,100943.86
2023-03-28T02:26:33.553Z,100940.89
2023-03-28T02:28:00.313Z,100946.45
2023-03-28T02:29:28.447Z,100948.05
2023-03-28T02:30:44.931Z,100948.65
2023-03-28T02:31:50.016Z,100947.87
2023-03-28T02:32:59.159Z,100954.88
2023-03-28T02:34:02.341Z,100957.79
2023-03-28T02:35:07.362Z,100953.62
2023-03-28T02:36:32.908Z,100955.47
2023-03-28T02:37:49.522Z,100958.84
2023-03-28T02:38:55.481Z,100959.77
2023-03-28T02:40:39.817Z,100959.85
2023-03-28T02:42:16.599Z,100968.58
2023-03-28T02:43:25.252Z,100970.31
2023-03-28T02:44:47.071Z,100971.17
2023-03-28T02:46:10.466Z,100973.70
2023-03-28T02:47:31.784Z,100975.07
2023-03-28T02:49:11.302Z,100976.04
2023-03-28T02:50:32.301Z,100973.22
2023-03-28T02:51:46.532Z,100976.52
2023-03-28T02:53:27.333Z,100975.20
2023-03-28T02:54:33.236Z,100978.25
2023-03-28T02:56:24.218Z,100979.67
2023-03-28T02:57:53.902Z,100987.09
2023-03-28T02:59:17.883Z,100984.83
2023-03-28T03:00:22.719Z,100988.61
2023-03-28T03:01:29.412Z,100991.00
2023-03-28T03:02:33.551Z,100993.97
2023-03-28T03:03:37.813Z,100993.19
2023-03-28T03:04:40.839Z,100998.63
2023-03-28T03:05:43.910Z,100996.61
2023-03-28T03:06:48.453Z,100993.73
2023-03-28T03:07:52.176Z,100995.84
2023-03-28T03:08:55.159Z,100998.56
2023-03-28T03:09:59.220Z,100996.68
2023-03-28T03:11:02.092Z,100998.52
2023-03-28T03:12:05.419Z,100998.20
2023-03-28T03:13:08.383Z,100995.02
2023-03-28T03:14:12.346Z,100995.41
2023-03-28T03:15:17.235Z,100998.80
2023-03-28T03:16:33.397Z,101002.00
2023-03-28T03:17:36.838Z,101003.09
2023-03-28T03:18:41.074Z,101004.00
2023-03-28T03:19:44.014Z,101004.63
2023-03-28T03:20:47.064Z,101004.85
2023-03-28T03:21:50.096Z,101008.46
2023-03-28T03:22:54.806Z,101006.40
2023-03-28T03:23:57.722Z,101008.60
2023-03-28T03:25:06.721Z,101009.86
2023-03-28T03:26:12.119Z,101012.34
2023-03-28T03:27:22.134Z,101010.79
2023-03-28T03:28:25.224Z,101018.85
2023-03-28T03:29:38.906Z,101017.52
2023-03-28T03:30:43.438Z,101015.28
2023-03-28T03:32:05.562Z,101020.80
2023-03-28T03:33:17.071Z,101019.17
2023-03-28T03:34:21.081Z,101019.48
2023-03-28T03:35:33.488Z,101018.34
2023-03-28T03:36:40.696Z,101018.34
2023-03-28T03:37:43.732Z,101027.19
2023-03-28T03:38:47.679Z,101027.30
2023-03-28T03:39:54.344Z,101026.46
2023-03-28T03:41:03.168Z,101029.23
2023-03-28T03:42:06.367Z,101035.58
2023-03-28T03:43:09.558Z,101027.36
2023-03-28T03:44:13.370Z,101028.39
2023-03-28T03:45:16.260Z,101030.30
2023-03-28T03:46:20.157Z,101027.00
2023-03-28T03:47:23.803Z,101027.41
2023-03-28T03:48:27.051Z,101032.75
2023-03-28T03:49:33.377Z,101030.21
2023-03-28T03:50:39.480Z,101030.86
2023-03-28T03:51:50.928Z,101035.66
2023-03-28T03:52:53.899Z,101036.54
2023-03-28T03:54:01.133Z,101033.88
2023-03-28T03:55:11.759Z,101032.35
2023-03-28T03:56:16.654Z,101031.52
2023-03-28T03:57:30.204Z,101036.55
2023-03-28T03:58:36.425Z,101038.04
2023-03-28T03:59:42.549Z,101037.32
2023-03-28T04:00:49.053Z,101037.73
2023-03-28T04:02:12.237Z,101039.80
2023-03-28T04:03:35.148Z,101040.35
2023-03-28T04:04:40.676Z,101039.02
2023-03-28T04:05:46.245Z,101039.17
2023-03-28T04:06:50.042Z,101037.73
2023-03-28T04:07:52.887Z,101042.45
2023-03-28T04:09:02.926Z,101044.74
2023-03-28T04:10:22.030Z,101046.20
2023-03-28T04:11:25.268Z,101046.50
2023-03-28T04:12:28.273Z,101045.20
2023-03-28T04:13:31.843Z,101044.48
2023-03-28T04:14:36.988Z,101048.66
2023-03-28T04:16:00.026Z,101048.85
2023-03-28T04:17:16.199Z,101049.30
2023-03-28T04:18:20.586Z,101050.58
2023-03-28T04:19:25.792Z,101055.91
2023-03-28T04:20:29.825Z,101055.36
2023-03-28T04:21:48.144Z,101060.42
2023-03-28T04:22:51.554Z,101060.77
2023-03-28T04:23:55.383Z,101063.90
2023-03-28T04:25:03.237Z,101065.89
2023-03-28T04:26:20.679Z,101065.94
2023-03-28T04:27:31.660Z,101070.33
2023-03-28T04:28:34.714Z,101068.86
2023-03-28T04:29:41.846Z,101072.84
2023-03-28T04:31:00.501Z,101072.05
2023-03-28T04:32:22.226Z,101075.38
2023-03-28T04:33:38.053Z,101081.15
2023-03-28T04:34:41.141Z,101081.06
2023-03-28T04:35:51.342Z,101082.93
2023-03-28T04:36:57.007Z,101082.42
2023-03-28T04:38:00.182Z,101088.81
2023-03-28T04:39:03.968Z,101085.73
2023-03-28T04:40:28.136Z,101085.73
2023-03-28T04:41:55.715Z,101089.38
2023-03-28T04:43:29.203Z,101087.75
2023-03-28T04:44:32.323Z,101089.84
2023-03-28T04:45:39.204Z,101093.98
2023-03-28T04:46:51.195Z,101096.08
2023-03-28T04:47:54.387Z,101098.19
2023-03-28T04:48:57.951Z,101100.83
2023-03-28T04:50:04.037Z,101098.97
2023-03-28T04:51:10.255Z,101097.91
2023-03-28T04:52:14.867Z,101099.23
2023-03-28T04:53:19.939Z,101102.52
2023-03-28T04:54:42.808Z,101101.42
2023-03-28T04:55:51.510Z,101106.30
2023-03-28T04:56:58.178Z,101105.98
2023-03-28T04:58:11.303Z,101108.35
2023-03-28T04:59:17.657Z,101105.92
2023-03-28T05:00:22.477Z,101106.70
2023-03-28T05:02:00.649Z,101108.70
2023-03-28T05:03:25.088Z,101115.69
2023-03-28T05:04:35.411Z,101115.38
2023-03-28T05:05:42.151Z,101113.55
2023-03-28T05:06:50.166Z,101112.41
2023-03-28T05:07:54.170Z,101117.95
2023-03-28T05:08:57.753Z,101119.05
2023-03-28T05:10:04.436Z,101115.61
2023-03-28T05:11:11.640Z,101118.85
2023-03-28T05:12:14.512Z,101117.00
2023-03-28T05:13:36.081Z,101116.51
2023-03-28T05:14:58.730Z,101120.20
2023-03-28T05:16:01.700Z,101119.94
2023-03-28T05:17:19.730Z,101125.55
2023-03-28T05:18:36.016Z,101126.95
2023-03-28T05:19:39.932Z,101132.88
2023-03-28T05:20:47.903Z,101131.94
2023-03-28T05:21:50.805Z,101132.63
2023-03-28T05:22:54.114Z,101130.95
2023-03-28T05:23:56.939Z,101137.46
2023-03-28T05:25:00.449Z,101137.64
2023-03-28T05:26:03.926Z,101139.84
2023-03-28T05:27:08.533Z,101135.85
2023-03-28T05:28:12.768Z,101136.16
2023-03-28T05:29:27.853Z,101136.12
2023-03-28T05:30:31.651Z,101134.98
2023-03-28T05:31:35.725Z,101136.61
2023-03-28T05:33:07.890Z,101137.98
2023-03-28T05:34:11.169Z,101138.75
2023-03-28T05:35:20.275Z,101140.53
2023-03-28T05:36:23.892Z,101143.67
2023-03-28T05:37:28.491Z,101140.77
2023-03-28T05:38:33.288Z,101144.82
2023-03-28T05:39:40.612Z,101143.77
2023-03-28T05:40:43.569Z,101144.02
2023-03-28T05:41:47.252Z,101148.10
2023-03-28T05:42:50.823Z,101150.30
2023-03-28T05:43:55.714Z,101150.28
2023-03-28T05:45:12.673Z,101149.73
2023-03-28T05:46:34.393Z,101154.22
2023-03-28T05:47:37.695Z,101161.40
2023-03-28T05:48:41.029Z,101157.52
2023-03-28T05:49:44.091Z,101159.91
2023-03-28T05:50:49.382Z,101160.08
2023-03-28T05:51:52.494Z,101165.96
2023-03-28T05:52:55.471Z,101162.46
2023-03-28T05:53:58.954Z,101165.48
2023-03-28T05:55:01.986Z,101166.36
2023-03-28T05:56:08.118Z,101170.05
2023-03-28T05:57:11.429Z,101168.28
2023-03-28T05:58:15.139Z,101167.88
2023-03-28T05:59:20.169Z,101172.23
2023-03-28T06:00:23.603Z,101169.21
2023-03-28T06:01:29.315Z,101173.11
2023-03-28T06:02:34.313Z,101172.70
2023-03-28T06:03:41.090Z,101176.69
2023-03-28T06:04:44.981Z,101179.00
2023-03-28T06:05:52.176Z,101181.84
2023-03-28T06:06:57.185Z,101189.17
2023-03-28T06:08:04.623Z,101191.80
2023-03-28T06:09:07.560Z,101196.38
2023-03-28T06:10:21.450Z,101194.57
2023-03-28T06:11:36.906Z,101200.83
2023-03-28T06:12:47.223Z,101195.90
2023-03-28T06:13:50.411Z,101196.55
2023-03-28T06:14:55.036Z,101194.98
2023-03-28T06:16:11.538Z,101197.27
2023-03-28T06:17:14.486Z,101199.36
2023-03-28T06:18:25.943Z,101201.14
2023-03-28T06:19:29.516Z,101199.48
2023-03-28T06:20:32.619Z,101203.36
2023-03-28T06:21:35.497Z,101202.48
2023-03-28T06:22:41.598Z,101202.68
2023-03-28T06:23:46.510Z,101204.50
2023-03-28T06:25:09.882Z,101206.89
2023-03-28T06:26:15.826Z,101210.29
2023-03-28T06:27:19.016Z,101211.78
2023-03-28T06:28:22.381Z,101210.10
2023-03-28T06:29:43.246Z,101211.23
2023-03-28T06:30:50.436Z,101209.37
2023-03-28T06:31:53.867Z,101211.98
2023-03-28T06:32:56.743Z,101213.19
2023-03-28T06:33:59.839Z,101213.52
2023-03-28T06:35:02.731Z,101211.67
2023-03-28T06:36:06.089Z,101214.91
2023-03-28T06:37:12.299Z,101211.56
2023-03-28T06:38:41.420Z,101213.09
2023-03-28T06:39:44.476Z,101221.25
2023-03-28T06:40:47.544Z,101217.42
2023-03-28T06:41:51.694Z,101221.14
2023-03-28T06:43:01.247Z,101217.27
2023-03-28T06:44:16.832Z,101222.35
2023-03-28T06:45:31.438Z,101229.95
2023-03-28T06:46:39.621Z,101230.76
2023-03-28T06:47:42.554Z,101234.27
2023-03-28T06:48:46.162Z,101235.19
2023-03-28T06:50:04.427Z,101237.02
2023-03-28T06:51:45.722Z,101240.52
2023-03-28T06:52:48.741Z,101242.42
2023-03-28T06:53:52.425Z,101245.38
2023-03-28T06:55:00.487Z,101250.09
2023-03-28T06:56:03.728Z,101243.77
2023-03-28T06:57:06.826Z,101250.29
2023-03-28T06:58:11.586Z,101246.84
2023-03-28T06:59:21.466Z,101251.78
2023-03-28T07:00:27.984Z,101256.94
2023-03-28T07:01:49.665Z,101262.33
2023-03-28T07:02:57.749Z,101257.29
2023-03-28T07:04:02.480Z,101262.47
2023-03-28T07:05:06.667Z,101264.79
2023-03-28T07:06:10.768Z,101267.02
2023-03-28T07:07:14.628Z,101267.77
2023-03-28T07:08:18.431Z,101268.66
2023-03-28T07:09:21.303Z,101267.02
2023-03-28T07:10:30.515Z,101270.02
2023-03-28T07:11:33.852Z,101270.68
2023-03-28T07:12:36.955Z,101275.00
2023-03-28T07:13:40.361Z,101273.66
2023-03-28T07:14:46.971Z,101275.59
2023-03-28T07:16:07.302Z,101274.84
2023-03-28T07:17:11.865Z,101278.10
2023-03-28T07:18:15.027Z,101273.33
2023-03-28T07:19:18.482Z,101273.70
2023-03-28T07:20:23.464Z,101279.12
2023-03-28T07:21:26.682Z,101284.58
2023-03-28T07:22:31.642Z,101287.69
2023-03-28T07:23:34.593Z,101292.20
2023-03-28T07:24:39.631Z,101291.87
2023-03-28T07:25:45.268Z,101293.80
2023-03-28T07:26:49.024Z,101291.70
2023-03-28T07:27:52.619Z,101299.76
2023-03-28T07:28:56.368Z,101297.71
2023-03-28T07:30:00.487Z,101296.79
2023-03-28T07:31:05.595Z,101299.75
2023-03-28T07:32:09.982Z,101304.90
2023-03-28T07:33:18.828Z,101298.70
2023-03-28T07:34:26.866Z,101306.61
2023-03-28T07:35:29.995Z,101307.64
2023-03-28T07:36:33.061Z,101304.89
2023-03-28T07:37:44.490Z,101305.92
2023-03-28T07:39:06.114Z,101310.42
2023-03-28T07:40:10.925Z,101316.23
2023-03-28T07:41:15.653Z,101318.00
2023-03-28T07:42:18.671Z,101311.40
2023-03-28T07:43:21.564Z,101318.92
2023-03-28T07:44:24.489Z,101322.77
2023-03-28T07:45:27.613Z,101322.02
2023-03-28T07:46:32.254Z,101323.59
2023-03-28T07:47:35.174Z,101326.17
2023-03-28T07:48:38.772Z,101325.89
2023-03-28T07:49:42.146Z,101325.15
2023-03-28T07:50:45.593Z,101331.20
2023-03-28T07:51:52.613Z,101329.70
2023-03-28T07:52:57.909Z,101335.06
2023-03-28T07:54:01.960Z,101335.38
2023-03-28T07:55:05.444Z,101331.63
2023-03-28T07:56:12.195Z,101330.35
2023-03-28T07:57:47.759Z,101331.95
2023-03-28T07:59:14.824Z,101338.09
2023-03-28T08:00:19.554Z,101333.08
2023-03-28T08:01:26.390Z,101339.65
2023-03-28T08:02:34.336Z,101334.41
2023-03-28T08:03:37.820Z,101339.09
2023-03-28T08:04:41.169Z,101343.22
2023-03-28T08:05:51.634Z,101344.90
2023-03-28T08:06:56.122Z,101346.31
2023-03-28T08:07:59.506Z,101345.60
2023-03-28T08:09:02.654Z,101348.71
2023-03-28T08:10:09.975Z,101353.67
2023-03-28T08:11:14.176Z,101353.50
2023-03-28T08:12:17.230Z,101353.51
2023-03-28T08:13:21.177Z,101358.97
2023-03-28T08:14:24.795Z,101361.11
2023-03-28T08:15:27.852Z,101364.75
2023-03-28T08:16:31.465Z,101365.42
2023-03-28T08:17:35.257Z,101371.56
2023-03-28T08:18:38.261Z,101373.19
2023-03-28T08:19:41.584Z,101375.32
2023-03-28T08:20:51.759Z,101371.77
2023-03-28T08:21:58.921Z,101372.74
2023-03-28T08:23:03.119Z,101374.08
2023-03-28T08:24:34.895Z,101375.39
2023-03-28T08:25:46.457Z,101373.67
2023-03-28T08:26:50.857Z,101373.92
2023-03-28T08:27:54.073Z,101371.98
2023-03-28T08:28:58.987Z,101372.30
2023-03-28T08:30:02.304Z,101375.11
2023-03-28T08:31:14.464Z,101378.30
2023-03-28T08:32:18.088Z,101374.92
2023-03-28T08:33:21.509Z,101377.63
2023-03-28T08:34:24.501Z,101379.33
2023-03-28T08:35:27.711Z,101371.00
2023-03-28T08:36:32.813Z,101378.40
2023-03-28T08:37:36.101Z,101379.61
2023-03-28T08:38:39.007Z,101379.98
2023-03-28T08:39:42.872Z,101388.48
2023-03-28T08:40:57.864Z,101393.98
2023-03-28T08:42:32.692Z,101379.55
2023-03-28T08:44:17.048Z,101381.15
2023-03-28T08:46:04.471Z,101391.59
2023-03-28T08:47:16.337Z,101392.52
2023-03-28T08:48:29.578Z,101396.54
2023-03-28T08:49:44.917Z,101395.69
2023-03-28T08:51:02.951Z,101403.77
2023-03-28T08:52:06.644Z,101405.77
2023-03-28T08:53:24.286Z,101413.37
2023-03-28T08:54:38.844Z,101416.26
2023-03-28T08:55:42.929Z,101421.74
2023-03-28T08:57:00.906Z,101423.66
2023-03-28T08:58:04.792Z,101433.63
2023-03-28T08:59:13.057Z,101434.33
2023-03-28T09:00:34.296Z,101428.45
2023-03-28T09:01:37.727Z,101438.42
2023-03-28T09:02:41.510Z,101441.13
2023-03-28T09:03:45.005Z,101442.70
2023-03-28T09:04:51.865Z,101444.63
2023-03-28T09:06:16.327Z,101450.12
2023-03-28T09:07:32.789Z,101443.50
2023-03-28T09:09:00.984Z,101439.50
2023-03-28T09:10:28.000Z,101445.39
2023-03-28T09:11:58.004Z,101451.83
2023-03-28T09:13:11.810Z,101455.84
2023-03-28T09:14:35.065Z,101456.68
2023-03-28T09:15:51.183Z,101454.81
2023-03-28T09:16:54.904Z,101453.39
2023-03-28T09:18:09.819Z,101449.69
2023-03-28T09:19:15.515Z,101454.66
2023-03-28T09:20:36.484Z,101454.77
2023-03-28T09:22:15.933Z,101455.95
2023-03-28T09:24:08.726Z,101450.80
2023-03-28T09:25:20.736Z,101456.84
2023-03-28T09:26:34.804Z,101455.55
2023-03-28T09:27:52.443Z,101453.53
2023-03-28T09:29:11.369Z,101453.88
2023-03-28T09:30:23.484Z,101453.94
2023-03-28T09:31:40.928Z,101458.09
2023-03-28T09:32:45.374Z,101456.99
2023-03-28T09:33:50.423Z,101460.02
2023-03-28T09:35:01.971Z,101458.88
2023-03-28T09:36:21.428Z,101458.87
2023-03-28T09:37:30.613Z,101461.44
2023-03-28T09:38:43.448Z,101461.57
2023-03-28T09:40:04.094Z,101459.27
2023-03-28T09:41:42.806Z,101460.59
2023-03-28T09:43:18.127Z,101460.28
2023-03-28T09:44:53.498Z,101466.52
2023-03-28T09:46:28.155Z,101464.30
2023-03-28T09:47:43.183Z,101477.16
2023-03-28T09:48:48.336Z,101470.15
2023-03-28T09:50:02.146Z,101474.17
2023-03-28T09:51:16.960Z,101475.19
2023-03-28T09:52:21.783Z,101466.96
2023-03-28T09:53:27.843Z,101478.71
2023-03-28T09:54:35.249Z,101469.52
2023-03-28T09:55:38.819Z,101472.02
2023-03-28T09:56:44.847Z,101470.64
2023-03-28T09:58:11.276Z,101476.24
2023-03-28T09:59:35.231Z,101475.55
2023-03-28T10:00:50.800Z,101479.55
2023-03-28T10:02:33.656Z,101487.13
2023-03-28T10:03:39.796Z,101484.13
2023-03-28T10:04:44.853Z,101487.64
2023-03-28T10:05:51.702Z,101490.46
2023-03-28T10:07:08.953Z,101487.29
2023-03-28T10:08:27.089Z,101491.95
2023-03-28T10:09:50.899Z,101492.33
2023-03-28T10:11:02.451Z,101502.27
2023-03-28T10:12:10.550Z,101506.30
2023-03-28T10:13:18.120Z,101508.54
2023-03-28T10:14:38.937Z,101511.60
2023-03-28T10:15:48.392Z,101515.50
2023-03-28T10:16:52.253Z,101517.66
2023-03-28T10:18:18.780Z,101518.34
2023-03-28T10:19:26.447Z,101523.28
2023-03-28T10:20:52.629Z,101519.65
2023-03-28T10:21:56.276Z,101517.05
2023-03-28T10:23:04.555Z,101523.77
2023-03-28T10:24:15.646Z,101521.14
2023-03-28T10:25:36.970Z,101526.60
2023-03-28T10:26:40.174Z,101521.55
2023-03-28T10:27:44.598Z,101529.58
2023-03-28T10:28:50.434Z,101523.66
2023-03-28T10:29:56.567Z,101537.68
2023-03-28T10:31:02.859Z,101530.16
2023-03-28T10:32:13.289Z,101538.41
2023-03-28T10:33:25.487Z,101529.91
2023-03-28T10:35:00.456Z,101532.61
2023-03-28T10:36:25.538Z,101531.86
2023-03-28T10:37:32.919Z,101534.23
2023-03-28T10:38:56.197Z,101533.67
2023-03-28T10:40:19.898Z,101533.95
2023-03-28T10:42:11.809Z,101532.17
2023-03-28T10:43:47.221Z,101541.23
2023-03-28T10:45:02.687Z,101541.58
2023-03-28T10:46:32.881Z,101546.61
2023-03-28T10:48:02.618Z,101558.13
2023-03-28T10:49:13.661Z,101570.85
2023-03-28T10:50:38.134Z,101576.66
2023-03-28T10:51:44.264Z,101568.29
2023-03-28T10:53:18.933Z,101563.59
2023-03-28T10:54:43.213Z,101563.90
2023-03-28T10:56:18.638Z,101562.83
2023-03-28T10:57:45.461Z,101566.64
2023-03-28T10:59:10.359Z,101564.11
2023-03-28T11:00:42.568Z,101562.08
2023-03-28T11:01:54.657Z,101557.14
2023-03-28T11:03:39.378Z,101564.65
2023-03-28T11:05:13.600Z,101565.23
2023-03-28T11:06:22.842Z,101562.92
2023-03-28T11:07:43.150Z,101560.39
2023-03-28T11:09:31.756Z,101566.38
2023-03-28T11:11:19.748Z,101557.97
2023-03-28T11:14:21.840Z,101562.31
2023-03-28T11:14:47.818Z,101567.02
2023-03-28T11:16:08.014Z,101572.65
2023-03-28T11:17:34.135Z,101575.45
2023-03-28T11:19:17.908Z,101576.67
2023-03-28T11:20:30.259Z,101586.11
2023-03-28T11:22:15.921Z,101588.16
2023-03-28T11:23:38.633Z,101596.31
2023-03-28T11:25:38.272Z,101595.50
2023-03-28T11:27:16.157Z,101598.39
2023-03-28T11:28:52.897Z,101603.87
2023-03-28T11:30:09.742Z,101611.61
2023-03-28T11:31:22.408Z,101614.94
2023-03-28T11:32:53.473Z,101618.93
2023-03-28T11:34:03.156Z,101606.05
2023-03-28T11:35:18.699Z,101604.46
2023-03-28T11:36:37.330Z,101606.42
2023-03-28T11:38:04.623Z,101607.58
2023-03-28T11:39:42.785Z,101604.59
2023-03-28T11:41:11.213Z,101609.10
2023-03-28T11:42:51.827Z,101605.16
2023-03-28T11:43:57.435Z,101604.71
2023-03-28T11:45:07.970Z,101609.16
2023-03-28T11:46:14.969Z,101607.75
2023-03-28T11:47:32.666Z,101612.50
2023-03-28T11:49:07.765Z,101615.09
2023-03-28T11:50:18.803Z,101614.64
2023-03-28T11:51:52.815Z,101616.65
2023-03-28T11:53:02.110Z,101620.05
2023-03-28T11:54:29.293Z,101617.68
2023-03-28T11:55:44.837Z,101612.34
2023-03-28T11:57:18.331Z,101611.30
2023-03-28T11:58:33.162Z,101609.38
2023-03-28T11:59:43.985Z,101609.14
2023-03-28T12:01:00.901Z,101604.77
2023-03-28T12:02:14.520Z,101609.89
2023-03-28T12:03:30.489Z,101612.77
2023-03-28T12:04:43.052Z,101615.18
2023-03-28T12:06:00.010Z,101614.23
2023-03-28T12:07:27.179Z,101617.02
2023-03-28T12:08:48.424Z,101620.36
2023-03-28T12:10:09.527Z,101628.61
2023-03-28T12:11:21.869Z,101632.69
2023-03-28T12:12:51.700Z,101642.02
2023-03-28T12:14:12.486Z,101638.06
2023-03-28T12:15:29.020Z,101640.23
2023-03-28T12:16:49.766Z,101642.14
2023-03-28T12:18:03.292Z,101642.02
2023-03-28T12:19:11.596Z,101643.17
2023-03-28T12:20:32.881Z,101640.33
2023-03-28T12:21:46.045Z,101647.39
2023-03-28T12:22:57.983Z,101649.19
2023-03-28T12:24:59.773Z,101661.66
2023-03-28T12:26:13.422Z,101663.06
2023-03-28T12:27:19.742Z,101668.20
2023-03-28T12:28:33.320Z,101664.55
2023-03-28T12:29:57.289Z,101668.23
2023-03-28T12:31:19.168Z,101679.93
2023-03-28T12:32:56.701Z,101680.38
2023-03-28T12:34:09.816Z,101683.04
2023-03-28T12:35:55.349Z,101684.23
2023-03-28T12:37:32.307Z,101688.38
2023-03-28T12:38:44.632Z,101695.33
2023-03-28T12:40:24.619Z,101687.66
2023-03-28T12:41:40.319Z,101689.73
2023-03-28T12:42:45.922Z,101700.25
2023-03-28T12:44:15.127Z,101699.64
2023-03-28T12:45:41.939Z,101694.02
2023-03-28T12:46:53.584Z,101695.70
2023-03-28T12:48:08.270Z,101697.84
2023-03-28T12:49:35.774Z,101694.78
2023-03-28T12:50:56.876Z,101696.46
2023-03-28T12:52:03.917Z,101697.89
2023-03-28T12:53:11.623Z,101691.81
2023-03-28T12:54:16.307Z,101697.92
2023-03-28T12:55:26.091Z,101694.88
2023-03-28T12:56:31.857Z,101697.77
2023-03-28T12:57:40.554Z,101696.14
2023-03-28T12:58:53.171Z,101697.25
2023-03-28T13:00:17.477Z,101696.52
2023-03-28T13:01:49.454Z,101698.36
2023-03-28T13:03:45.788Z,101694.63
2023-03-28T13:05:00.728Z,101693.27
2023-03-28T13:06:19.327Z,101696.59
2023-03-28T13:07:47.850Z,101695.95
2023-03-28T13:09:08.524Z,101699.70
2023-03-28T13:10:31.405Z,101691.99
2023-03-28T13:11:34.259Z,101697.67
2023-03-28T13:12:52.207Z,101700.71
2023-03-28T13:14:32.867Z,101702.00
2023-03-28T13:15:54.124Z,101704.47
2023-03-28T13:17:17.671Z,101704.52
2023-03-28T13:18:20.448Z,101702.92
2023-03-28T13:19:41.979Z,101707.44
2023-03-28T13:20:47.105Z,101708.46
2023-03-28T13:21:56.374Z,101702.39
2023-03-28T13:23:06.657Z,101706.73
2023-03-28T13:24:29.421Z,101709.95
2023-03-28T13:25:35.158Z,101713.18
2023-03-28T13:26:56.183Z,101705.16
2023-03-28T13:28:12.819Z,101705.63
2023-03-28T13:29:15.748Z,101712.86
2023-03-28T13:30:28.859Z,101715.02
2023-03-28T13:31:33.032Z,101725.53
2023-03-28T13:32:42.964Z,101721.36
2023-03-28T13:33:49.377Z,101726.73
2023-03-28T13:34:57.867Z,101732.37
2023-03-28T13:36:03.987Z,101727.30
2023-03-28T13:37:23.374Z,101718.73
2023-03-28T13:38:30.547Z,101737.91
2023-03-28T13:39:33.488Z,101722.83
2023-03-28T13:40:56.214Z,101723.05
2023-03-28T13:41:59.989Z,101724.33
2023-03-28T13:43:02.794Z,101730.88
2023-03-28T13:44:12.499Z,101737.25
2023-03-28T13:45:25.551Z,101739.85
2023-03-28T13:47:04.982Z,101737.24
2023-03-28T13:48:13.525Z,101739.08
2023-03-28T13:49:29.195Z,101740.17
2023-03-28T13:50:37.833Z,101737.57
2023-03-28T13:52:08.758Z,101741.37
2023-03-28T13:53:11.697Z,101737.94